createdAt,value
2018-06-23T00:02:14.321Z,76.68
2018-06-23T00:04:46.393Z,76.40
2018-06-23T00:07:16.640Z,76.40
2018-06-23T00:09:46.872Z,76.30
2018-06-23T00:12:20.009Z,75.85
2018-06-23T00:14:50.538Z,75.59
2018-06-23T00:17:21.045Z,75.27
2018-06-23T00:19:51.773Z,75.11
2018-06-23T00:22:21.859Z,75.39
2018-06-23T00:24:52.269Z,75.06
2018-06-23T00:27:22.477Z,74.94
2018-06-23T00:29:54.042Z,75.03
2018-06-23T00:32:24.446Z,75.02
2018-06-23T00:34:54.551Z,75.75
2018-06-23T00:37:24.630Z,75.10
2018-06-23T00:39:54.725Z,74.84
2018-06-23T00:42:34.462Z,74.32
2018-06-23T00:45:04.819Z,74.04
2018-06-23T00:47:53.623Z,74.51
2018-06-23T00:50:24.437Z,74.27
2018-06-23T00:52:54.496Z,73.84
2018-06-23T00:55:24.618Z,73.80
2018-06-23T00:57:54.858Z,74.15
2018-06-23T01:00:25.550Z,74.29
2018-06-23T01:03:01.601Z,74.84
2018-06-23T01:05:32.221Z,75.08
2018-06-23T01:08:06.492Z,75.45
2018-06-23T01:10:53.637Z,75.89
2018-06-23T01:13:29.930Z,75.97
2018-06-23T01:16:00.914Z,75.95
2018-06-23T01:18:33.433Z,76.68
2018-06-23T01:21:04.332Z,76.36
2018-06-23T01:23:34.600Z,77.14
2018-06-23T01:26:05.187Z,76.52
2018-06-23T01:28:35.717Z,76.67
2018-06-23T01:31:05.936Z,77.37
2018-06-23T01:33:36.104Z,77.17
2018-06-23T01:36:07.418Z,77.58
2018-06-23T01:38:38.386Z,77.38
2018-06-23T01:41:09.641Z,77.76
2018-06-23T01:43:40.734Z,77.71
2018-06-23T01:46:11.014Z,78.44
2018-06-23T01:48:41.532Z,78.27
2018-06-23T01:51:12.420Z,78.41
2018-06-23T01:53:43.859Z,78.20
2018-06-23T01:56:14.146Z,78.05
2018-06-23T01:58:44.235Z,78.16
2018-06-23T02:01:14.538Z,78.68
2018-06-23T02:03:45.965Z,78.29
2018-06-23T02:06:18.205Z,78.56
2018-06-23T02:08:50.692Z,78.61
2018-06-23T02:11:21.284Z,78.24
2018-06-23T02:13:56.961Z,78.60
2018-06-23T02:16:32.200Z,78.20
2018-06-23T02:19:07.306Z,78.50
2018-06-23T02:21:42.727Z,78.17
2018-06-23T02:24:17.764Z,77.94
2018-06-23T02:26:53.091Z,77.47
2018-06-23T02:32:30.817Z,77.54
2018-06-23T02:35:05.861Z,78.08
2018-06-23T02:37:39.971Z,78.07
2018-06-23T02:40:11.133Z,78.11
2018-06-23T02:42:41.284Z,78.59
2018-06-23T02:45:11.341Z,78.09
2018-06-23T02:47:41.537Z,77.27
2018-06-23T02:50:11.577Z,76.76
2018-06-23T02:52:41.701Z,76.45
2018-06-23T02:55:11.832Z,76.19
2018-06-23T02:57:42.001Z,76.07
2018-06-23T03:00:13.695Z,76.52
2018-06-23T03:02:44.796Z,76.43
2018-06-23T03:05:15.937Z,75.45
2018-06-23T03:07:45.956Z,75.91
2018-06-23T03:10:16.064Z,76.13
2018-06-23T03:12:46.788Z,76.21
2018-06-23T03:15:16.926Z,76.32
2018-06-23T03:17:47.040Z,76.67
2018-06-23T03:20:17.216Z,77.34
2018-06-23T03:22:47.377Z,77.03
2018-06-23T03:25:17.688Z,77.09
2018-06-23T03:27:47.807Z,77.23
2018-06-23T03:30:18.044Z,77.63
2018-06-23T03:32:48.286Z,78.08
2018-06-23T03:35:18.537Z,77.99
2018-06-23T03:37:48.917Z,78.17
2018-06-23T03:40:18.976Z,77.18
2018-06-23T03:42:49.127Z,77.26
2018-06-23T03:45:35.789Z,77.32
2018-06-23T03:48:06.151Z,78.01
2018-06-23T03:50:38.056Z,78.20
2018-06-23T03:53:08.182Z,78.77
2018-06-23T03:55:40.553Z,78.54
2018-06-23T03:58:14.905Z,79.05
2018-06-23T04:00:50.259Z,79.13
2018-06-23T04:03:21.065Z,81.57
2018-06-23T04:05:51.161Z,79.10
2018-06-23T04:08:21.218Z,78.56
2018-06-23T04:10:51.301Z,78.47
2018-06-23T04:13:22.082Z,78.93
2018-06-23T04:15:52.219Z,78.49
2018-06-23T04:18:22.546Z,79.25
2018-06-23T04:20:54.444Z,79.32
2018-06-23T04:23:27.425Z,79.00
2018-06-23T04:25:58.474Z,79.27
2018-06-23T04:28:29.488Z,79.69
2018-06-23T04:31:01.109Z,79.47
2018-06-23T04:33:32.757Z,79.14
2018-06-23T04:36:06.772Z,79.21
2018-06-23T04:38:37.280Z,79.76
2018-06-23T04:41:08.700Z,79.27
2018-06-23T04:43:53.749Z,79.55
2018-06-23T04:46:26.971Z,79.86
2018-06-23T04:48:57.600Z,79.67
2018-06-23T04:51:28.499Z,78.77
2018-06-23T04:53:58.972Z,79.25
2018-06-23T04:56:29.678Z,83.39
2018-06-23T04:59:00.024Z,80.99
2018-06-23T05:01:30.496Z,82.28
2018-06-23T05:04:00.673Z,80.37
2018-06-23T05:06:32.034Z,80.39
2018-06-23T05:09:04.685Z,80.73
2018-06-23T05:11:35.369Z,80.45
2018-06-23T05:14:06.363Z,80.81
2018-06-23T05:16:38.482Z,80.88
2018-06-23T05:19:12.016Z,80.85
2018-06-23T05:21:42.494Z,80.54
2018-06-23T05:24:18.193Z,80.76
2018-06-23T05:26:52.274Z,80.86
2018-06-23T05:29:28.020Z,80.60
2018-06-23T05:31:58.344Z,80.48
2018-06-23T05:34:29.792Z,79.78
2018-06-23T05:37:00.114Z,79.25
2018-06-23T05:39:30.956Z,79.70
2018-06-23T05:42:01.339Z,78.55
2018-06-23T05:44:31.682Z,77.99
2018-06-23T05:47:32.968Z,77.74
2018-06-23T05:50:09.492Z,76.58
2018-06-23T05:55:47.329Z,74.58
2018-06-23T05:58:17.928Z,73.88
2018-06-23T06:00:48.683Z,72.11
2018-06-23T06:03:25.898Z,72.49
2018-06-23T06:05:57.199Z,72.41
2018-06-23T06:16:52.999Z,72.44
2018-06-23T06:19:38.822Z,68.02
2018-06-23T06:22:13.222Z,69.27
2018-06-23T06:24:45.518Z,67.70
2018-06-23T06:29:41.079Z,67.41
2018-06-23T06:32:13.507Z,67.40
2018-06-23T06:34:48.877Z,68.01
2018-06-23T06:37:24.375Z,67.76
2018-06-23T06:39:53.950Z,66.39
2018-06-23T06:42:23.684Z,65.62
2018-06-23T06:45:01.600Z,65.19
2018-06-23T06:47:31.773Z,64.18
2018-06-23T06:50:01.288Z,64.68
2018-06-23T06:52:31.248Z,64.09
2018-06-23T06:55:00.843Z,64.29
2018-06-23T06:57:31.495Z,64.04
2018-06-23T07:00:01.356Z,61.52
2018-06-23T07:02:31.221Z,61.54
2018-06-23T07:05:01.196Z,61.06
2018-06-23T07:07:31.423Z,59.78
2018-06-23T07:10:01.122Z,58.93
2018-06-23T07:12:30.932Z,59.61
2018-06-23T07:15:00.587Z,59.50
2018-06-23T07:17:30.385Z,59.66
2018-06-23T07:19:59.912Z,60.74
2018-06-23T07:22:29.909Z,61.04
2018-06-23T07:24:59.772Z,59.26
2018-06-23T07:27:29.395Z,59.92
2018-06-23T07:29:58.859Z,61.67
2018-06-23T07:32:47.140Z,60.88
2018-06-23T07:35:16.812Z,60.49
2018-06-23T07:37:46.482Z,59.60
2018-06-23T07:40:16.468Z,56.66
2018-06-23T07:42:46.114Z,56.41
2018-06-23T07:45:15.782Z,56.30
2018-06-23T07:47:45.542Z,55.96
2018-06-23T07:50:15.041Z,55.82
2018-06-23T07:52:45.233Z,57.69
2018-06-23T07:55:14.765Z,58.28
2018-06-23T07:57:44.821Z,56.65
2018-06-23T08:00:14.612Z,58.35
2018-06-23T08:02:44.211Z,57.90
2018-06-23T08:05:13.809Z,57.12
2018-06-23T08:07:45.822Z,55.10
2018-06-23T08:10:15.557Z,56.20
2018-06-23T08:12:44.994Z,57.51
2018-06-23T08:15:14.488Z,56.69
2018-06-23T08:17:43.894Z,54.76
2018-06-23T08:20:13.712Z,54.88
2018-06-23T08:22:52.830Z,54.69
2018-06-23T08:26:12.637Z,53.19
2018-06-23T08:28:47.866Z,53.23
2018-06-23T08:31:17.724Z,52.08
2018-06-23T08:33:47.528Z,52.17
2018-06-23T08:36:17.146Z,53.07
2018-06-23T08:38:46.905Z,49.47
2018-06-23T08:41:17.307Z,49.94
2018-06-23T08:43:47.511Z,49.64
2018-06-23T08:46:17.424Z,50.67
2018-06-23T08:48:47.281Z,51.88
2018-06-23T08:51:19.949Z,49.69
2018-06-23T08:53:50.711Z,47.36
2018-06-23T08:56:21.058Z,44.43
2018-06-23T08:58:50.524Z,42.63
2018-06-23T09:01:19.924Z,40.64
2018-06-23T09:03:50.460Z,37.60
2018-06-23T09:06:19.937Z,35.78
2018-06-23T09:08:49.625Z,34.71
2018-06-23T09:11:19.143Z,35.70
2018-06-23T09:13:48.635Z,35.32
2018-06-23T09:16:18.126Z,38.15
2018-06-23T09:18:48.112Z,41.62
2018-06-23T09:21:17.843Z,40.08
2018-06-23T09:23:48.253Z,41.83
2018-06-23T09:26:19.880Z,41.23
2018-06-23T09:28:52.522Z,40.43
2018-06-23T09:31:22.333Z,40.03
2018-06-23T09:33:55.602Z,37.25
2018-06-23T09:43:18.428Z,38.66
2018-06-23T09:45:48.695Z,36.07
2018-06-23T09:48:20.263Z,36.35
2018-06-23T09:50:50.032Z,39.67
2018-06-23T09:53:19.549Z,43.44
2018-06-23T09:55:51.008Z,43.82
2018-06-23T09:58:21.509Z,44.08
2018-06-23T10:00:51.160Z,44.37
2018-06-23T10:03:23.219Z,44.43
2018-06-23T10:05:53.600Z,44.27
2018-06-23T10:08:23.467Z,44.42
2018-06-23T10:10:56.127Z,43.00
2018-06-23T10:13:27.190Z,42.26
2018-06-23T10:15:59.264Z,40.16
2018-06-23T10:18:28.977Z,39.32
2018-06-23T10:20:59.221Z,39.81
2018-06-23T10:23:28.847Z,38.71
2018-06-23T10:25:58.913Z,41.54
2018-06-23T10:28:28.564Z,41.26
2018-06-23T10:30:58.601Z,41.84
2018-06-23T10:33:28.360Z,42.65
2018-06-23T10:35:58.050Z,43.88
2018-06-23T10:38:27.924Z,43.28
2018-06-23T10:40:57.473Z,41.17
2018-06-23T10:43:26.925Z,39.32
2018-06-23T10:45:56.455Z,37.15
2018-06-23T10:48:26.477Z,35.16
2018-06-23T10:53:15.329Z,34.20
2018-06-23T10:55:44.993Z,32.51
2018-06-23T10:58:16.092Z,33.65
2018-06-23T11:00:45.664Z,35.20
2018-06-23T11:03:19.139Z,35.82
2018-06-23T11:05:49.733Z,34.60
2018-06-23T11:08:19.561Z,34.74
2018-06-23T11:10:49.362Z,35.50
2018-06-23T11:13:20.951Z,35.03
2018-06-23T11:15:55.105Z,34.91
2018-06-23T11:18:24.724Z,33.02
2018-06-23T11:20:56.440Z,34.53
2018-06-23T11:23:25.953Z,34.72
2018-06-23T11:25:55.556Z,36.74
2018-06-23T11:28:25.515Z,38.40
2018-06-23T11:30:55.186Z,35.53
2018-06-23T11:33:25.132Z,32.42
2018-06-23T11:35:56.244Z,31.39
2018-06-23T11:38:26.454Z,29.14
2018-06-23T11:40:56.163Z,29.70
2018-06-23T11:43:25.958Z,30.27
2018-06-23T11:45:57.917Z,29.20
2018-06-23T11:48:27.475Z,29.53
2018-06-23T11:50:57.677Z,29.40
2018-06-23T11:53:27.248Z,30.62
2018-06-23T11:55:57.010Z,29.03
2018-06-23T11:58:27.490Z,26.42
2018-06-23T12:00:57.770Z,25.74
2018-06-23T12:03:27.619Z,23.43
2018-06-23T12:05:57.686Z,24.30
2018-06-23T12:08:29.961Z,25.32
2018-06-23T12:11:00.350Z,24.79
2018-06-23T12:13:30.170Z,24.68
2018-06-23T12:15:59.998Z,25.52
2018-06-23T12:19:17.223Z,27.23
2018-06-23T12:21:51.394Z,30.58
2018-06-23T12:27:18.177Z,29.02
2018-06-23T12:29:47.881Z,30.33
2018-06-23T12:32:17.750Z,30.78
2018-06-23T12:34:47.983Z,32.42
2018-06-23T12:37:17.611Z,31.87
2018-06-23T12:39:47.314Z,34.23
2018-06-23T12:42:17.749Z,32.20
2018-06-23T12:44:49.097Z,32.59
2018-06-23T12:47:18.890Z,32.06
2018-06-23T12:49:48.515Z,31.13
2018-06-23T12:52:19.334Z,29.94
2018-06-23T12:54:51.293Z,28.79
2018-06-23T12:57:22.473Z,27.84
2018-06-23T12:59:53.258Z,27.03
2018-06-23T13:02:23.055Z,27.78
2018-06-23T13:04:52.589Z,30.20
2018-06-23T13:07:25.790Z,31.17
2018-06-23T13:09:56.728Z,28.82
2018-06-23T13:12:28.512Z,26.86
2018-06-23T13:15:05.485Z,25.69
2018-06-23T13:17:41.345Z,27.92
2018-06-23T13:20:13.520Z,28.53
2018-06-23T13:22:50.219Z,26.12
2018-06-23T13:25:20.008Z,24.27
2018-06-23T13:27:50.441Z,23.33
2018-06-23T13:30:20.528Z,22.38
2018-06-23T13:32:50.369Z,24.49
2018-06-23T13:35:20.391Z,26.39
2018-06-23T13:37:49.960Z,27.07
2018-06-23T13:40:20.080Z,29.10
2018-06-23T13:42:52.307Z,28.82
2018-06-23T13:45:22.127Z,26.75
2018-06-23T13:54:01.059Z,22.84
2018-06-23T13:56:30.731Z,21.36
2018-06-23T13:59:00.371Z,21.10
2018-06-23T14:01:30.109Z,21.68
2018-06-23T14:04:01.254Z,23.21
2018-06-23T14:06:33.454Z,24.13
2018-06-23T14:09:03.292Z,24.93
2018-06-23T14:11:32.755Z,23.15
2018-06-23T14:14:02.840Z,23.41
2018-06-23T14:16:32.702Z,23.04
2018-06-23T14:19:02.377Z,22.42
2018-06-23T14:21:32.501Z,24.16
2018-06-23T14:24:02.421Z,26.07
2018-06-23T14:26:33.029Z,27.19
2018-06-23T14:29:03.060Z,26.89
2018-06-23T14:31:33.529Z,26.39
2018-06-23T14:34:03.319Z,27.23
2018-06-23T14:36:34.728Z,26.76
2018-06-23T14:39:09.328Z,27.28
2018-06-23T14:41:43.504Z,28.02
2018-06-23T14:44:14.164Z,27.61
2018-06-23T14:46:48.518Z,28.36
2018-06-23T14:50:13.533Z,26.47
2018-06-23T14:52:43.048Z,25.54
2018-06-23T14:55:13.450Z,26.08
2018-06-23T14:57:44.450Z,26.83
2018-06-23T15:00:14.310Z,27.19
2018-06-23T15:02:44.080Z,27.24
2018-06-23T15:05:14.360Z,27.94
2018-06-23T15:07:45.618Z,29.94
2018-06-23T15:10:27.031Z,29.39
2018-06-23T15:13:12.033Z,31.04
2018-06-23T15:15:44.993Z,31.65
2018-06-23T15:18:16.153Z,32.92
2018-06-23T15:20:51.595Z,33.61
2018-06-23T15:23:25.903Z,32.67
2018-06-23T15:25:56.124Z,30.87
2018-06-23T15:28:26.932Z,31.95
2018-06-23T15:31:00.680Z,30.91
2018-06-23T15:33:30.256Z,31.36
2018-06-23T15:35:59.859Z,31.28
2018-06-23T15:38:29.320Z,30.22
2018-06-23T15:41:03.766Z,32.30
2018-06-23T15:43:34.627Z,32.60
2018-06-23T15:46:04.528Z,31.47
2018-06-23T15:48:49.678Z,32.49
2018-06-23T15:51:19.563Z,31.24
2018-06-23T15:53:51.734Z,31.27
2018-06-23T15:56:21.458Z,31.37
2018-06-23T15:58:52.596Z,32.13
2018-06-23T16:01:25.414Z,31.62
2018-06-23T16:03:57.564Z,32.80
2018-06-23T16:06:27.960Z,31.30
2018-06-23T16:08:58.054Z,31.21
2018-06-23T16:11:28.060Z,31.56
2018-06-23T16:13:57.616Z,31.90
2018-06-23T16:16:27.158Z,32.52
2018-06-23T16:18:56.691Z,33.83
2018-06-23T16:21:26.127Z,34.37
2018-06-23T17:00:36.924Z,40.13
2018-06-23T17:03:06.361Z,39.20
2018-06-23T17:05:35.918Z,39.03
2018-06-23T17:08:05.532Z,40.32
2018-06-23T17:10:34.970Z,39.72
2018-06-23T17:13:04.634Z,40.34
2018-06-23T17:15:34.045Z,41.63
2018-06-23T17:18:05.089Z,41.31
2018-06-23T17:20:34.599Z,41.69
2018-06-23T17:23:04.706Z,40.84
2018-06-23T17:25:34.120Z,41.26
2018-06-23T17:28:04.786Z,41.90
2018-06-23T17:30:34.829Z,41.00
2018-06-23T17:33:04.680Z,42.63
2018-06-23T17:35:37.723Z,41.91
2018-06-23T17:38:08.212Z,43.06
2018-06-23T17:40:41.095Z,42.77
2018-06-23T17:43:10.875Z,43.33
2018-06-23T17:45:40.808Z,42.68
2018-06-23T17:48:10.407Z,43.55
2018-06-23T17:50:40.136Z,43.30
2018-06-23T17:53:09.899Z,43.82
2018-06-23T17:55:40.616Z,43.90
2018-06-23T17:58:14.035Z,43.68
2018-06-23T18:00:44.224Z,43.51
2018-06-23T18:03:13.880Z,43.77
2018-06-23T18:05:43.349Z,44.15
2018-06-23T18:08:13.103Z,44.51
2018-06-23T18:10:42.817Z,45.34
2018-06-23T18:13:12.778Z,44.88
2018-06-23T18:15:42.589Z,45.37
2018-06-23T18:21:16.558Z,45.86
2018-06-23T18:23:47.553Z,45.86
2018-06-23T18:26:19.244Z,46.58
2018-06-23T18:28:52.818Z,46.69
2018-06-23T18:31:27.249Z,46.79
2018-06-23T18:33:58.608Z,46.66
2018-06-23T18:36:28.360Z,47.98
2018-06-23T18:39:02.658Z,47.44
2018-06-23T18:41:32.437Z,47.25
2018-06-23T18:44:04.076Z,48.17
2018-06-23T18:46:40.231Z,48.22
2018-06-23T18:49:10.296Z,47.99
2018-06-23T18:51:41.401Z,48.35
2018-06-23T18:54:14.153Z,48.73
2018-06-23T18:56:48.053Z,49.57
2018-06-23T18:59:26.624Z,49.42
2018-06-23T19:04:55.771Z,49.50
2018-06-23T19:07:31.313Z,49.84
2018-06-23T19:10:07.495Z,50.77
2018-06-23T19:12:38.609Z,50.92
2018-06-23T19:15:09.166Z,50.86
2018-06-23T19:17:42.414Z,50.42
2018-06-23T19:20:24.162Z,50.69
2018-06-23T19:22:57.335Z,51.47
2018-06-23T19:25:27.602Z,51.51
2018-06-23T19:28:00.339Z,52.30
2018-06-23T19:34:02.004Z,52.76
2018-06-23T19:36:37.079Z,51.49
2018-06-23T19:39:13.214Z,52.45
2018-06-23T19:41:48.935Z,51.93
2018-06-23T19:44:19.211Z,52.17
2018-06-23T19:46:49.208Z,52.31
2018-06-23T19:55:05.571Z,52.68
2018-06-23T19:57:40.122Z,52.59
2018-06-23T20:00:13.947Z,52.06
2018-06-23T20:02:48.332Z,52.69
2018-06-23T20:05:18.643Z,51.95
2018-06-23T20:07:52.009Z,52.80
2018-06-23T20:10:23.786Z,53.29
2018-06-23T20:12:59.308Z,52.78
2018-06-23T20:15:31.387Z,51.94
2018-06-23T20:18:07.468Z,51.99
2018-06-23T20:20:38.150Z,52.52
2018-06-23T20:23:08.236Z,52.19
2018-06-23T20:25:39.018Z,52.55
2018-06-23T20:40:04.039Z,51.03
2018-06-23T20:42:35.912Z,51.59
2018-06-23T20:45:15.562Z,50.69
2018-06-23T20:47:48.249Z,51.14
2018-06-23T20:53:00.314Z,51.69
2018-06-23T20:55:32.619Z,52.01
2018-06-23T20:58:06.392Z,51.56
2018-06-23T21:15:54.209Z,52.43
2018-06-23T21:24:48.730Z,52.95
2018-06-23T21:27:25.853Z,52.88
2018-06-23T21:29:56.584Z,52.86
2018-06-23T21:32:30.624Z,53.38
2018-06-23T21:35:10.842Z,53.28
2018-06-23T21:37:47.735Z,53.93
2018-06-23T21:40:36.522Z,53.81
2018-06-23T21:43:26.004Z,54.59
2018-06-23T21:59:39.187Z,55.59
2018-06-23T22:02:28.474Z,55.51
2018-06-23T22:05:08.429Z,55.99
2018-06-23T22:07:49.850Z,54.76
2018-06-23T22:10:37.425Z,55.46
2018-06-23T22:27:21.077Z,55.88
2018-06-23T22:29:58.601Z,56.85
2018-06-23T22:32:37.261Z,57.13
2018-06-23T22:35:10.891Z,57.35
2018-06-23T23:41:07.922Z,64.86
2018-06-23T23:43:46.007Z,64.61
2018-06-23T23:46:20.808Z,65.02
2018-06-23T23:48:53.308Z,65.22
2018-06-23T23:51:26.167Z,65.51
2018-06-23T23:53:56.554Z,66.00
2018-06-23T23:56:29.088Z,66.20
2018-06-23T23:59:05.051Z,66.74
